Itaperuna, Brazil
Current Conditions -  °F | °C
As of 11:00 AM on Thursday 30 Oct 2014 (Local Time) from SBCP Reporting Station
Few Clouds Few Clouds  
Wind Chill: 86°   Ceiling: Unl
Heat Index: 87°   Visibility: 6mi
Dew Point: 64°   Wind: 8mph
Humidity: 48%   Direction: 90°E
Pressure: 29.91"   Gusts: NA
Location:  21.21°S, 41.89°W
Report Text: SBCP 301300Z 09007KT 9999 FEW020 30/18 Q1013
Loading
Personal Weather Stations






























Interactive Weather Map
Tropical Storm Tracking
New forecast layout! Learn more

10-Day Weather Forecast

Advertisements
Track Severe Weather on mobile